Time;durP1;ratioP1;P1;durP2;ratioP2;P2;SDS_P1;SDS_P2;PMS_P1;PMS_P2;Temp;Humidity;BMP_temperature;BMP_pressure;BME280_temperature;BME280_humidity;BME280_pressure;Samples;Min_cycle;Max_cycle;Signal;HPM_P1;HPM_P2
2023/10/01 00:00:57;;;;;;;;;;;17.40;49.90;;;16.44;51.60;102096.59;12269535;19;19923;-85
2023/10/01 00:04:59;;;;;;;;;;;17.40;49.90;;;16.39;51.74;102083.72;12268706;19;19907;-85
2023/10/01 00:09:05;;;;;;;;;;;17.40;49.90;;;16.50;51.68;102090.97;12268893;19;19928;-85
2023/10/01 00:13:07;;;;;;;;;;;17.40;49.90;;;16.53;51.69;102085.53;12269116;19;19915;-85
2023/10/01 00:17:09;;;;;;;;;;;17.50;50.00;;;16.53;51.82;102082.91;12268513;19;19923;-85
2023/10/01 00:21:10;;;;;;;;;;;17.40;49.90;;;16.50;51.71;102077.78;12268269;19;19919;-85
2023/10/01 00:25:12;;;;;;;;;;;17.50;49.90;;;16.48;51.81;102072.63;12265290;19;19934;-83
2023/10/01 00:29:14;;;;;;;;;;;17.50;49.90;;;16.58;51.76;102075.56;12262985;19;19931;-83
2023/10/01 00:33:16;;;;;;;;;;;17.40;49.90;;;16.53;51.96;102064.44;12263606;19;19919;-85
2023/10/01 00:37:18;;;;;;;;;;;17.50;50.00;;;16.50;51.69;102054.91;12261359;19;19927;-83
2023/10/01 00:41:20;;;;;;;;;;;17.50;49.90;;;16.63;51.98;102070.00;12265695;19;19911;-85
2023/10/01 00:45:22;;;;;;;;;;;17.60;50.00;;;16.48;51.81;102045.41;12264519;19;19919;-84
2023/10/01 00:49:24;;;;;;;;;;;17.60;49.90;;;16.60;52.01;102065.75;12264145;19;19911;-85
2023/10/01 00:53:26;;;;;;;;;;;17.60;49.90;;;16.67;51.88;102060.97;12265775;19;19933;-84
2023/10/01 00:57:28;;;;;;;;;;;17.60;49.90;;;16.66;52.10;102046.09;12265973;19;20279;-83
2023/10/01 01:01:29;;;;;;;;;;;17.60;49.90;;;16.46;51.90;102020.91;12265941;19;20274;-84
2023/10/01 01:05:37;;;;;;;;;;;17.60;49.90;;;16.48;52.13;102032.22;12265716;19;20419;-84
2023/10/01 01:09:41;;;;;;;;;;;17.60;49.90;;;16.65;52.06;102047.03;12263588;19;20334;-84
2023/10/01 01:13:45;;;;;;;;;;;17.60;49.90;;;16.70;51.92;102066.91;12264780;19;19959;-85
2023/10/01 01:17:50;;;;;;;;;;;17.60;50.00;;;16.69;52.08;102070.50;12265606;19;19919;-84
2023/10/01 01:21:52;;;;;;;;;;;17.70;49.90;;;16.65;52.09;102047.88;12265995;19;20379;-85
2023/10/01 01:25:54;;;;;;;;;;;17.70;49.90;;;16.70;52.18;102047.59;12265166;19;19911;-85
2023/10/01 01:29:57;;;;;;;;;;;17.70;50.00;;;16.72;52.09;102032.53;12260002;19;19986;-84
2023/10/01 01:33:59;;;;;;;;;;;17.70;50.00;;;16.70;52.27;102035.25;12262501;19;19907;-85
2023/10/01 01:38:01;;;;;;;;;;;17.60;49.90;;;16.70;52.20;102037.91;12263010;19;20341;-85
2023/10/01 01:42:03;;;;;;;;;;;17.60;49.90;;;16.68;52.07;102029.22;12260094;19;19967;-85
2023/10/01 01:46:08;;;;;;;;;;;17.60;50.00;;;16.68;52.20;102034.50;12263407;19;19922;-84
2023/10/01 01:50:19;;;;;;;;;;;17.60;49.90;;;16.68;52.08;102037.13;12267022;19;19938;-84
2023/10/01 01:54:20;;;;;;;;;;;17.60;49.90;;;16.70;52.17;102035.25;12276079;19;19911;-84
2023/10/01 01:58:25;;;;;;;;;;;17.60;50.00;;;16.73;52.33;102034.22;12270605;19;19935;-85
2023/10/01 02:02:26;;;;;;;;;;;17.70;50.00;;;16.66;52.33;102036.41;12274916;19;19911;-84
2023/10/01 02:06:28;;;;;;;;;;;17.70;50.00;;;16.73;52.29;102026.31;12275104;19;19938;-84
2023/10/01 02:10:31;;;;;;;;;;;17.70;50.00;;;16.48;51.95;101987.38;12271191;19;19911;-84
2023/10/01 02:14:35;;;;;;;;;;;17.70;50.00;;;16.70;52.21;102021.22;12273894;19;20031;-85
2023/10/01 02:18:41;;;;;;;;;;;17.70;50.00;;;16.65;52.17;102032.06;12272882;19;19947;-85
2023/10/01 02:22:43;;;;;;;;;;;17.60;49.90;;;16.67;52.19;102026.69;12272139;19;19907;-85
2023/10/01 02:26:46;;;;;;;;;;;17.60;50.00;;;16.66;52.09;102023.22;12274439;19;19943;-84
2023/10/01 02:30:56;;;;;;;;;;;17.60;50.00;;;16.45;52.30;101977.03;12267973;19;19929;-85
2023/10/01 02:34:59;;;;;;;;;;;17.60;50.10;;;16.68;52.15;102018.69;12271672;19;19926;-84
2023/10/01 02:39:11;;;;;;;;;;;17.60;50.10;;;16.64;52.26;101997.88;12271280;19;20345;-83
2023/10/01 02:43:13;;;;;;;;;;;17.60;50.00;;;16.60;52.33;101984.84;12271575;19;19922;-83
2023/10/01 02:47:23;;;;;;;;;;;17.70;50.20;;;16.55;52.30;101973.75;12263896;19;19935;-84
2023/10/01 02:51:37;;;;;;;;;;;17.70;50.10;;;16.69;52.27;101990.50;12267175;19;19919;-85
2023/10/01 02:55:44;;;;;;;;;;;17.70;50.20;;;16.61;52.36;101985.72;12269432;19;20289;-84
2023/10/01 03:04:10;;;;;;;;;;;17.70;50.20;;;16.73;52.28;101982.31;12273003;19;19915;-84
2023/10/01 03:08:25;;;;;;;;;;;17.70;50.20;;;16.73;52.31;101978.84;12273699;19;19915;-84
2023/10/01 03:12:35;;;;;;;;;;;17.70;50.10;;;16.75;52.47;101980.44;12268452;19;19952;-84
2023/10/01 03:16:42;;;;;;;;;;;17.70;50.10;;;16.77;52.28;101983.88;12261472;19;19930;-86
2023/10/01 03:24:53;;;;;;;;;;;17.70;50.10;;;16.78;52.37;101980.28;12270523;19;20257;-84
2023/10/01 03:33:15;;;;;;;;;;;17.70;50.10;;;16.75;52.39;101985.72;12272089;19;19923;-85
2023/10/01 03:37:19;;;;;;;;;;;17.80;50.10;;;16.73;52.29;101979.69;12273190;19;19911;-84
2023/10/01 03:41:21;;;;;;;;;;;17.70;50.10;;;16.76;52.33;101987.41;12271009;19;20072;-83
2023/10/01 03:49:33;;;;;;;;;;;17.80;50.10;;;16.74;52.55;101997.22;12264410;19;19915;-84
2023/10/01 03:53:35;;;;;;;;;;;17.80;50.20;;;16.83;52.55;102013.47;12265946;19;19911;-84
2023/10/01 03:57:52;;;;;;;;;;;17.80;50.10;;;16.84;52.45;102009.88;12270291;19;20254;-84
2023/10/01 04:02:02;;;;;;;;;;;17.80;50.10;;;16.85;52.67;102001.00;12269794;19;19918;-84
2023/10/01 04:06:06;;;;;;;;;;;17.80;50.10;;;16.85;52.49;101990.44;12270204;19;20329;-84
2023/10/01 04:10:14;;;;;;;;;;;17.80;50.20;;;16.84;52.57;101994.03;12268190;19;19934;-85
2023/10/01 04:14:17;;;;;;;;;;;17.80;50.10;;;16.77;52.39;101983.88;12266904;19;19923;-84
2023/10/01 04:18:21;;;;;;;;;;;17.80;50.10;;;16.81;52.55;101982.72;12266100;19;20620;-85
2023/10/01 04:22:25;;;;;;;;;;;17.80;50.10;;;16.79;52.36;101975.84;12266280;19;19926;-84
2023/10/01 04:26:29;;;;;;;;;;;17.80;50.10;;;16.75;52.63;101953.22;12269102;19;19919;-85
2023/10/01 04:30:34;;;;;;;;;;;17.80;50.10;;;16.78;52.40;101953.06;12268063;19;19944;-85
2023/10/01 04:34:36;;;;;;;;;;;17.80;50.10;;;16.80;52.50;101957.31;12270228;19;20261;-85
2023/10/01 04:38:41;;;;;;;;;;;17.80;50.10;;;16.84;52.55;101976.41;12270466;19;19926;-84
2023/10/01 04:42:43;;;;;;;;;;;17.80;50.00;;;16.86;52.54;101973.69;12269112;19;20265;-84
2023/10/01 04:46:45;;;;;;;;;;;17.80;50.00;;;16.80;52.57;101965.22;12269073;19;19924;-85
2023/10/01 04:50:50;;;;;;;;;;;17.80;50.00;;;16.78;52.41;101963.59;12265544;19;19931;-84
2023/10/01 04:54:51;;;;;;;;;;;17.80;50.00;;;16.86;52.40;101992.16;12267371;19;19921;-83
2023/10/01 04:58:54;;;;;;;;;;;17.80;50.00;;;16.87;52.73;101991.22;12262932;19;19929;-84
2023/10/01 05:02:57;;;;;;;;;;;17.80;50.00;;;16.76;52.51;101976.84;12263491;19;20368;-83
2023/10/01 05:07:04;;;;;;;;;;;17.80;50.00;;;16.84;52.55;101994.88;12268145;19;19922;-85
2023/10/01 05:11:11;;;;;;;;;;;17.80;50.10;;;16.75;52.67;101985.72;12269010;19;20273;-85
2023/10/01 05:15:27;;;;;;;;;;;17.80;50.00;;;16.84;52.57;101994.03;12267781;19;19932;-85
2023/10/01 05:19:29;;;;;;;;;;;17.80;50.00;;;16.84;52.44;101996.69;12265744;19;19922;-85
2023/10/01 05:23:31;;;;;;;;;;;17.80;50.10;;;16.77;52.59;101983.03;12266371;19;19918;-84
2023/10/01 05:27:33;;;;;;;;;;;17.80;50.10;;;16.69;52.60;101967.63;12251846;19;19918;-85
2023/10/01 05:31:39;;;;;;;;;;;17.80;50.10;;;16.87;52.48;101993.84;12263252;19;20006;-85
2023/10/01 05:35:44;;;;;;;;;;;17.80;50.10;;;16.73;52.47;101976.19;12265755;19;20761;-84
2023/10/01 05:39:57;;;;;;;;;;;17.80;50.10;;;16.85;52.58;101999.25;12265854;19;19915;-84
2023/10/01 05:44:01;;;;;;;;;;;17.80;50.20;;;16.84;52.74;101996.69;12265062;19;19922;-85
2023/10/01 05:48:03;;;;;;;;;;;17.80;50.20;;;16.90;52.70;101999.78;12265198;19;19926;-84
2023/10/01 05:52:06;;;;;;;;;;;17.80;50.20;;;16.92;52.72;102000.53;12262752;19;19923;-84
2023/10/01 05:56:15;;;;;;;;;;;17.90;50.20;;;16.80;52.49;101988.97;12266296;19;19911;-85
2023/10/01 06:00:25;;;;;;;;;;;17.90;50.20;;;16.93;52.77;102011.94;12256655;19;19926;-85
2023/10/01 06:04:28;;;;;;;;;;;17.90;50.30;;;16.89;52.68;101992.81;12248942;19;19930;-84
2023/10/01 06:08:32;;;;;;;;;;;17.90;50.20;;;16.97;52.86;101994.97;12250199;19;19918;-84
2023/10/01 06:12:50;;;;;;;;;;;17.90;50.20;;;17.00;52.89;101989.50;12262599;19;19926;-84
2023/10/01 06:16:52;;;;;;;;;;;17.90;50.20;;;16.95;52.64;101981.03;12255342;19;19950;-83
2023/10/01 06:20:53;;;;;;;;;;;18.00;50.30;;;17.05;52.71;101987.44;12249442;19;20600;-86
2023/10/01 06:24:55;;;;;;;;;;;18.00;50.30;;;16.94;52.81;101963.50;12253666;19;19915;-81
2023/10/01 06:29:02;;;;;;;;;;;18.00;50.40;;;17.07;52.62;101980.28;12255784;19;19910;-84
2023/10/01 06:33:05;;;;;;;;;;;18.10;50.40;;;17.13;52.73;101984.31;12258130;19;20253;-82
2023/10/01 06:37:06;;;;;;;;;;;18.10;50.50;;;17.16;52.86;101992.03;12254663;19;19931;-84
2023/10/01 06:41:13;;;;;;;;;;;18.10;50.40;;;17.16;52.61;101987.59;12268971;19;19925;-83
2023/10/01 06:45:15;;;;;;;;;;;18.20;50.40;;;17.16;52.88;101979.69;12267974;19;19915;-83
2023/10/01 06:49:18;;;;;;;;;;;18.20;50.40;;;17.27;52.97;101986.09;12273845;19;20004;-84
2023/10/01 06:53:43;;;;;;;;;;;18.30;50.50;;;17.24;52.87;101982.69;12274511;19;19986;-84
2023/10/01 06:57:42;;;;;;;;;;;18.30;50.50;;;17.32;52.95;101992.78;12278815;19;20266;-82
2023/10/01 07:01:48;;;;;;;;;;;18.30;50.40;;;17.34;52.80;101990.91;12267194;19;19927;-84
2023/10/01 07:05:55;;;;;;;;;;;18.30;50.40;;;17.36;53.02;101974.94;12268465;19;19929;-84
2023/10/01 07:09:59;;;;;;;;;;;18.40;50.40;;;17.46;52.98;102000.66;12265557;19;19918;-84
2023/10/01 07:14:02;;;;;;;;;;;18.50;50.50;;;17.45;52.80;101992.84;12276094;19;19922;-84
2023/10/01 07:18:15;;;;;;;;;;;18.50;50.40;;;17.55;52.83;102001.88;12253266;19;19942;-84
2023/10/01 07:22:24;;;;;;;;;;;18.60;50.50;;;17.52;52.86;101996.78;12267025;19;20000;-85
2023/10/01 07:26:26;;;;;;;;;;;18.60;50.40;;;17.59;52.87;102000.72;12268131;19;19943;-85
2023/10/01 07:31:01;;;;;;;;;;;18.70;50.40;;;17.60;52.89;101999.75;12263145;19;19935;-84
2023/10/01 07:35:06;;;;;;;;;;;18.70;50.40;;;17.68;52.80;102008.03;12263722;19;19930;-83
2023/10/01 07:39:09;;;;;;;;;;;18.80;50.40;;;17.70;53.00;102005.31;12256226;19;19931;-84
2023/10/01 07:43:10;;;;;;;;;;;18.80;50.50;;;17.84;53.08;102009.72;12263241;19;19967;-83
2023/10/01 07:47:28;;;;;;;;;;;18.90;50.90;;;17.72;53.12;101984.09;12258786;19;19915;-84
2023/10/01 07:51:38;;;;;;;;;;;18.90;50.50;;;17.97;52.83;102017.72;12261544;19;19926;-84
2023/10/01 07:55:41;;;;;;;;;;;19.00;50.50;;;17.97;53.11;102013.28;12261619;19;20326;-85
2023/10/01 07:59:43;;;;;;;;;;;19.10;50.60;;;18.04;53.18;101996.06;12270169;19;19915;-85
2023/10/01 08:03:55;;;;;;;;;;;19.10;50.50;;;18.00;53.10;101986.63;12275753;19;19939;-84
2023/10/01 08:07:57;;;;;;;;;;;19.30;50.60;;;18.32;53.03;102015.38;12272376;19;19917;-84
2023/10/01 08:11:58;;;;;;;;;;;19.40;50.60;;;18.44;53.28;102006.59;12271202;19;19923;-85
2023/10/01 08:16:02;;;;;;;;;;;19.50;50.60;;;18.50;53.30;101995.59;12273564;19;19914;-85
2023/10/01 08:20:21;;;;;;;;;;;19.60;50.60;;;18.48;53.38;101955.19;12271252;19;19915;-85
2023/10/01 08:24:33;;;;;;;;;;;19.80;50.60;;;18.87;53.10;101994.88;12277537;19;19921;-85
2023/10/01 08:28:43;;;;;;;;;;;20.00;50.50;;;18.98;53.32;101995.84;12263188;19;19939;-84
2023/10/01 08:32:53;;;;;;;;;;;20.10;50.40;;;19.05;53.00;101990.09;12251563;19;19926;-84
2023/10/01 08:37:06;;;;;;;;;;;20.20;50.30;;;19.05;52.96;101982.16;12259992;19;19911;-82
2023/10/01 08:41:08;;;;;;;;;;;20.30;50.20;;;19.22;53.34;102000.31;12253653;19;19982;-82
2023/10/01 08:45:11;;;;;;;;;;;20.40;50.20;;;19.33;53.07;102003.03;12261282;19;19918;-83
2023/10/01 08:49:30;;;;;;;;;;;20.50;50.10;;;19.35;53.04;101993.19;12257054;19;19915;-83
2023/10/01 08:53:36;;;;;;;;;;;20.60;50.00;;;19.42;53.03;101999.75;12253969;19;19925;-83
2023/10/01 08:57:38;;;;;;;;;;;20.60;50.00;;;19.58;53.23;102003.94;12255917;19;19922;-85
2023/10/01 09:01:39;;;;;;;;;;;20.70;50.00;;;19.68;52.88;102004.97;12257852;19;19914;-83
2023/10/01 09:06:01;;;;;;;;;;;20.80;50.00;;;19.74;53.05;102001.03;12254087;19;19918;-83
2023/10/01 09:10:05;;;;;;;;;;;20.90;50.00;;;19.84;53.01;102005.53;12243489;19;19982;-83
2023/10/01 09:14:17;;;;;;;;;;;20.90;49.90;;;19.86;52.76;102000.97;12256193;19;19919;-85
2023/10/01 09:18:20;;;;;;;;;;;21.00;49.80;;;19.99;52.90;102013.34;12255892;19;19931;-83
2023/10/01 09:26:53;;;;;;;;;;;21.20;49.70;;;20.01;52.91;102001.66;12254908;19;20333;-83
2023/10/01 09:35:39;;;;;;;;;;;21.20;49.60;;;20.17;52.99;102011.97;12265817;19;19933;-83
2023/10/01 09:39:42;;;;;;;;;;;21.30;49.70;;;20.20;52.77;102006.41;12259870;19;19971;-83
2023/10/01 09:43:48;;;;;;;;;;;21.40;49.80;;;20.21;52.86;101992.19;12256103;19;19914;-83
2023/10/01 09:47:56;;;;;;;;;;;21.40;49.70;;;20.36;52.84;102003.44;12249825;19;19915;-82
2023/10/01 09:51:59;;;;;;;;;;;21.50;49.80;;;20.39;52.86;101986.41;12245314;19;20010;-81
2023/10/01 09:56:01;;;;;;;;;;;21.50;49.60;;;20.52;53.09;101995.13;12249435;19;19915;-82
2023/10/01 10:00:17;;;;;;;;;;;21.60;49.60;;;20.64;52.83;101985.44;12251198;19;20337;-82
2023/10/01 10:04:20;;;;;;;;;;;21.70;49.70;;;20.77;52.77;101978.19;12257196;19;20429;-82
2023/10/01 10:08:26;;;;;;;;;;;21.80;49.80;;;20.88;53.12;101975.53;12252101;19;19919;-82
2023/10/01 10:12:34;;;;;;;;;;;22.00;49.90;;;21.08;52.75;101997.84;12263096;19;19919;-82
2023/10/01 10:16:58;;;;;;;;;;;22.20;50.00;;;21.20;52.80;101990.72;12258703;19;19931;-82
2023/10/01 10:21:03;;;;;;;;;;;22.30;49.80;;;21.35;53.01;101981.50;12259790;19;19943;-83
2023/10/01 10:25:22;;;;;;;;;;;22.50;49.40;;;21.45;52.81;101989.63;12254095;19;19918;-82
2023/10/01 10:29:24;;;;;;;;;;;22.60;49.60;;;21.58;52.65;101998.28;12247444;19;19922;-84
2023/10/01 10:33:29;;;;;;;;;;;22.70;49.50;;;21.55;52.81;101956.00;12250681;19;19942;-82
2023/10/01 10:37:37;;;;;;;;;;;22.90;49.20;;;21.89;52.87;102001.06;12244586;19;20012;-83
2023/10/01 10:42:27;;;;;;;;;;;23.00;49.50;;;22.04;52.80;102005.13;12246173;19;20358;-81
2023/10/01 10:46:29;;;;;;;;;;;23.10;49.30;;;22.14;52.59;101991.03;12246292;19;19914;-83
2023/10/01 10:50:41;;;;;;;;;;;23.30;48.90;;;22.26;52.38;101995.38;12241034;19;19938;-82
2023/10/01 10:54:45;;;;;;;;;;;23.40;49.00;;;22.33;52.68;101983.22;12243304;19;20345;-82
2023/10/01 10:58:53;;;;;;;;;;;23.50;49.00;;;22.35;52.50;101981.25;12243338;19;19907;-81
2023/10/01 11:02:59;;;;;;;;;;;23.60;49.00;;;22.51;52.22;101994.94;12245116;19;19921;-82
2023/10/01 11:07:04;;;;;;;;;;;23.70;49.00;;;22.56;52.19;101991.06;12247653;19;19915;-83
2023/10/01 11:11:10;;;;;;;;;;;23.70;48.70;;;22.67;52.32;101990.97;12243859;19;19911;-82
2023/10/01 11:15:24;;;;;;;;;;;23.80;48.50;;;22.75;52.18;101991.16;12245930;19;19925;-82
2023/10/01 11:19:27;;;;;;;;;;;23.90;48.10;;;22.74;52.43;101957.53;12241486;19;19936;-82
2023/10/01 11:23:30;;;;;;;;;;;23.90;48.50;;;22.90;52.42;101967.66;12246135;19;20007;-83
2023/10/01 11:27:44;;;;;;;;;;;24.00;48.20;;;23.01;52.33;101966.72;12243166;19;20358;-81
2023/10/01 11:31:50;;;;;;;;;;;24.10;48.10;;;23.00;51.98;101952.56;12244297;19;20448;-82
2023/10/01 11:36:09;;;;;;;;;;;24.20;48.00;;;23.12;51.96;101966.66;12244574;19;19910;-82
2023/10/01 11:40:14;;;;;;;;;;;24.20;47.70;;;23.18;51.85;101968.75;12237493;19;19922;-82
2023/10/01 11:44:25;;;;;;;;;;;24.30;47.90;;;23.17;51.76;101948.44;12243037;19;19937;-82
2023/10/01 11:48:37;;;;;;;;;;;24.40;48.10;;;23.26;52.00;101946.75;12245818;19;19915;-82
2023/10/01 11:52:42;;;;;;;;;;;24.30;47.90;;;23.34;51.76;101958.41;12242680;19;19927;-82
2023/10/01 11:57:07;;;;;;;;;;;24.40;47.90;;;23.32;51.65;101938.19;12251778;19;20344;-82
2023/10/01 12:01:11;;;;;;;;;;;24.50;47.80;;;23.40;51.45;101944.53;12242811;19;19927;-82
2023/10/01 12:05:13;;;;;;;;;;;24.50;47.80;;;23.50;51.70;101957.03;12244246;19;19923;-82
2023/10/01 12:09:18;;;;;;;;;;;24.60;47.50;;;23.47;51.36;101944.00;12215812;19;19931;-81
2023/10/01 12:13:21;;;;;;;;;;;24.60;47.40;;;23.55;51.09;101957.47;12232567;19;19927;-82
2023/10/01 12:17:27;;;;;;;;;;;24.60;48.00;;;23.50;51.17;101941.88;12265951;19;19926;-83
2023/10/01 12:21:29;;;;;;;;;;;24.60;47.30;;;23.60;51.45;101950.72;12264453;19;19911;-82
2023/10/01 12:29:53;;;;;;;;;;;24.60;47.10;;;23.62;51.20;101937.22;12259358;19;19955;-83
2023/10/01 12:34:01;;;;;;;;;;;24.60;47.30;;;23.67;51.21;101955.50;12245736;19;19919;-81
2023/10/01 12:42:26;;;;;;;;;;;24.60;47.10;;;23.63;50.73;101938.94;12252692;19;19915;-82
2023/10/01 12:46:30;;;;;;;;;;;24.60;47.20;;;23.40;51.12;101895.69;12248073;19;20325;-82
2023/10/01 12:50:32;;;;;;;;;;;24.60;47.20;;;23.58;50.58;101909.19;12244686;19;19929;-82
2023/10/01 12:54:36;;;;;;;;;;;24.60;47.20;;;23.64;51.04;101920.09;12247832;19;19926;-82
2023/10/01 12:58:39;;;;;;;;;;;24.60;46.90;;;23.75;50.76;101935.16;12243378;19;19927;-82
2023/10/01 13:02:45;;;;;;;;;;;24.70;47.20;;;23.77;50.88;101929.69;12246732;19;19927;-84
2023/10/01 13:06:47;;;;;;;;;;;24.70;47.10;;;23.80;50.38;101921.41;12248271;19;19943;-82
2023/10/01 13:10:51;;;;;;;;;;;24.70;47.30;;;23.81;50.77;101925.75;12243262;19;19927;-87
2023/10/01 13:15:54;;;;;;;;;;;24.70;47.10;;;23.84;50.31;101925.44;12250481;19;19948;-82
2023/10/01 13:19:33;;;;;;;;;;;24.70;47.00;;;23.71;50.43;101909.75;12239819;19;20012;-82
2023/10/01 13:23:41;;;;;;;;;;;24.70;47.60;;;23.81;50.36;101920.41;12246880;19;19923;-83
2023/10/01 13:27:46;;;;;;;;;;;24.70;47.00;;;23.81;50.29;101921.25;12239452;19;19923;-84
2023/10/01 13:31:51;;;;;;;;;;;24.70;45.60;;;23.82;50.06;101922.13;12247602;19;19926;-84
2023/10/01 13:35:56;;;;;;;;;;;24.70;46.70;;;23.73;50.46;101904.28;12248576;19;20337;-83
2023/10/01 14:10:22;;;;;;;;;;;24.60;46.90;;;23.74;49.91;101887.31;12254296;19;20287;-83
2023/10/01 14:14:33;;;;;;;;;;;24.60;46.80;;;23.75;49.51;101881.81;12257891;19;19922;-83
2023/10/01 14:18:35;;;;;;;;;;;24.60;46.70;;;23.73;49.77;101881.09;12253778;19;20333;-83
2023/10/01 14:22:49;;;;;;;;;;;24.50;46.70;;;23.69;49.58;101857.50;12254500;19;19923;-83
2023/10/01 14:26:51;;;;;;;;;;;24.50;46.60;;;23.57;49.36;101851.47;12254153;19;20350;-83
2023/10/01 14:31:02;;;;;;;;;;;24.50;46.60;;;23.62;49.73;101865.22;12251725;19;19927;-83
2023/10/01 14:35:14;;;;;;;;;;;24.50;46.70;;;23.66;49.28;101865.81;12254892;19;19923;-83
2023/10/01 14:39:15;;;;;;;;;;;24.40;46.60;;;23.61;49.69;101860.88;12251892;19;19935;-81
2023/10/01 14:43:18;;;;;;;;;;;24.40;46.40;;;23.61;49.34;101866.22;12255030;19;19923;-83
2023/10/01 14:47:19;;;;;;;;;;;24.40;46.40;;;23.54;49.63;101859.75;12254318;19;19998;-82
2023/10/01 14:51:25;;;;;;;;;;;24.40;46.00;;;23.55;49.54;101872.13;12252965;19;20013;-83
2023/10/01 14:55:27;;;;;;;;;;;24.30;46.30;;;23.48;49.14;101831.00;12253379;19;19971;-84
2023/10/01 14:59:31;;;;;;;;;;;24.30;46.30;;;23.50;49.08;101859.22;12253740;19;19938;-82
2023/10/01 15:03:35;;;;;;;;;;;24.30;46.20;;;23.48;49.11;101866.50;12254223;19;19930;-84
2023/10/01 15:07:37;;;;;;;;;;;24.20;46.40;;;23.45;49.41;101864.13;12254936;19;19919;-84
2023/10/01 15:11:39;;;;;;;;;;;24.20;46.00;;;23.43;49.02;101855.41;12252431;19;19922;-82
2023/10/01 15:15:44;;;;;;;;;;;24.20;46.30;;;23.39;49.23;101868.19;12260968;19;19914;-82
2023/10/01 15:19:53;;;;;;;;;;;24.20;46.30;;;23.41;49.27;101868.91;12252673;19;19930;-83
2023/10/01 15:24:07;;;;;;;;;;;24.20;46.30;;;23.34;49.16;101859.78;12262690;19;19940;-83
2023/10/01 15:28:09;;;;;;;;;;;24.10;46.30;;;23.30;49.10;101868.19;12262528;19;19943;-84
2023/10/01 15:32:16;;;;;;;;;;;24.10;46.10;;;23.32;48.84;101875.06;12258498;19;19939;-83
2023/10/01 15:36:17;;;;;;;;;;;24.10;46.20;;;23.26;48.64;101875.63;12263130;19;20310;-83
2023/10/01 15:40:28;;;;;;;;;;;24.10;46.30;;;23.27;48.83;101890.63;12258521;19;19922;-83
2023/10/01 15:44:43;;;;;;;;;;;24.00;46.00;;;23.21;49.06;101912.50;12259400;19;19927;-84
2023/10/01 15:48:50;;;;;;;;;;;24.00;46.00;;;23.11;49.04;101920.47;12252917;19;19922;-84
2023/10/01 15:52:54;;;;;;;;;;;23.90;46.20;;;23.07;48.56;101940.41;12265654;19;19915;-83
2023/10/01 15:56:56;;;;;;;;;;;23.80;46.60;;;22.99;48.87;101918.94;12268300;19;19915;-85
2023/10/01 16:00:59;;;;;;;;;;;23.70;46.70;;;22.88;48.51;101927.84;12262223;19;19929;-84
2023/10/01 16:05:05;;;;;;;;;;;23.60;46.90;;;22.81;48.59;101932.00;12255940;19;19918;-82
2023/10/01 16:09:07;;;;;;;;;;;23.50;47.10;;;22.75;48.65;101937.88;12257952;19;19926;-82
2023/10/01 16:13:08;;;;;;;;;;;23.40;47.30;;;22.66;48.78;101922.72;12256937;19;19931;-83
2023/10/01 16:17:15;;;;;;;;;;;23.30;47.30;;;22.55;48.62;101915.69;12260916;19;19922;-82
2023/10/01 16:21:21;;;;;;;;;;;23.20;47.40;;;22.35;48.81;101903.25;12255996;19;20227;-83
2023/10/01 16:25:26;;;;;;;;;;;23.00;47.50;;;22.37;48.58;101915.44;12261357;19;19947;-83
2023/10/01 16:29:28;;;;;;;;;;;22.90;47.60;;;22.31;48.48;101905.34;12261661;19;19918;-82
2023/10/01 16:33:40;;;;;;;;;;;22.80;47.80;;;22.21;48.52;101883.97;12258567;19;20372;-84
2023/10/01 16:37:41;;;;;;;;;;;22.70;47.90;;;22.14;48.90;101877.47;12257258;19;19978;-82
2023/10/01 16:41:43;;;;;;;;;;;22.60;47.90;;;22.10;48.88;101894.69;12257223;19;19919;-81
2023/10/01 16:45:45;;;;;;;;;;;22.60;48.00;;;21.99;48.58;101886.78;12257884;19;20374;-83
2023/10/01 16:49:47;;;;;;;;;;;22.50;48.10;;;22.01;48.87;101895.47;12253515;19;19919;-83
2023/10/01 16:53:51;;;;;;;;;;;22.50;48.20;;;21.97;49.08;101899.34;12255766;19;20274;-82
2023/10/01 16:57:56;;;;;;;;;;;22.40;48.20;;;21.88;48.84;101895.66;12247591;19;20345;-82
2023/10/01 17:01:57;;;;;;;;;;;22.40;48.30;;;21.78;48.60;101881.44;12247857;19;19995;-82
2023/10/01 17:06:06;;;;;;;;;;;22.40;48.40;;;21.77;48.84;101885.09;12252194;19;19917;-83
2023/10/01 17:10:11;;;;;;;;;;;22.30;48.40;;;21.76;49.16;101902.84;12248619;19;19915;-83
2023/10/01 17:14:14;;;;;;;;;;;22.30;48.50;;;21.65;48.75;101881.63;12247112;19;19915;-83
2023/10/01 17:18:18;;;;;;;;;;;22.20;48.50;;;21.61;49.06;101882.88;12255688;19;20265;-82
2023/10/01 17:22:22;;;;;;;;;;;22.10;48.50;;;21.46;49.13;101884.97;12257358;19;19910;-83
2023/10/01 17:26:28;;;;;;;;;;;22.10;48.50;;;21.36;48.95;101884.00;12255352;19;19986;-82
2023/10/01 17:30:29;;;;;;;;;;;21.90;48.50;;;21.29;49.06;101873.06;12253641;19;19919;-82
2023/10/01 17:34:32;;;;;;;;;;;21.80;48.60;;;21.23;49.10;101876.22;12252918;19;19922;-83
2023/10/01 17:38:34;;;;;;;;;;;21.70;48.70;;;21.13;49.10;101880.59;12253341;19;20346;-83
2023/10/01 17:42:36;;;;;;;;;;;21.70;48.70;;;21.00;49.07;101878.94;12253321;19;19914;-84
2023/10/01 17:46:39;;;;;;;;;;;21.60;48.80;;;21.02;49.32;101880.63;12254817;19;19911;-83
2023/10/01 17:50:42;;;;;;;;;;;21.50;48.90;;;20.98;49.64;101883.56;12253376;19;19922;-83
2023/10/01 17:54:48;;;;;;;;;;;21.50;49.00;;;20.92;49.39;101881.38;12252423;19;19922;-84
2023/10/01 17:58:52;;;;;;;;;;;21.40;49.20;;;20.85;49.25;101871.38;12257523;19;19943;-84
2023/10/01 18:03:00;;;;;;;;;;;21.40;49.10;;;20.70;48.99;101853.03;12257803;19;19925;-84
2023/10/01 18:07:04;;;;;;;;;;;21.40;49.10;;;20.78;49.43;101879.81;12261126;19;19935;-84
2023/10/01 18:11:11;;;;;;;;;;;21.30;49.30;;;20.68;49.39;101875.38;12258118;19;19923;-84
2023/10/01 18:15:19;;;;;;;;;;;21.30;49.30;;;20.68;49.53;101870.91;12260332;19;19928;-84
2023/10/01 18:19:21;;;;;;;;;;;21.30;49.60;;;20.66;49.96;101872.03;12258656;19;20330;-84
2023/10/01 18:23:24;;;;;;;;;;;21.20;49.40;;;20.71;49.70;101881.31;12259404;19;19922;-83
2023/10/01 18:27:27;;;;;;;;;;;21.20;49.50;;;20.72;49.77;101885.63;12259014;19;19933;-82
2023/10/01 18:31:28;;;;;;;;;;;21.30;49.60;;;20.71;49.56;101877.78;12263232;19;20341;-84
2023/10/01 18:35:30;;;;;;;;;;;21.30;49.60;;;20.69;49.81;101866.47;12269674;19;19938;-83
2023/10/01 18:39:32;;;;;;;;;;;21.30;50.00;;;20.64;49.88;101856.19;12265090;19;19974;-83
2023/10/01 18:43:34;;;;;;;;;;;21.30;49.60;;;20.64;49.59;101863.31;12267765;19;19914;-82
2023/10/01 18:47:35;;;;;;;;;;;21.20;49.50;;;20.61;49.55;101867.06;12262237;19;20257;-81
2023/10/01 18:51:36;;;;;;;;;;;21.20;49.70;;;20.60;50.10;101875.97;12269231;19;19934;-84
2023/10/01 18:55:38;;;;;;;;;;;21.20;49.70;;;20.56;49.88;101874.53;12267807;19;19955;-84
2023/10/01 18:59:40;;;;;;;;;;;21.20;50.00;;;20.54;49.94;101882.63;12267631;19;20321;-84
2023/10/01 19:03:46;;;;;;;;;;;21.10;49.90;;;20.44;49.73;101868.38;12266795;19;19923;-84
2023/10/01 19:07:48;;;;;;;;;;;21.10;49.90;;;20.37;50.16;101868.97;12265046;19;20338;-84
2023/10/01 19:11:54;;;;;;;;;;;21.00;49.90;;;20.37;49.71;101877.78;12265320;19;19922;-84
2023/10/01 19:15:57;;;;;;;;;;;21.00;50.00;;;20.30;49.78;101877.38;12268495;19;19922;-84
2023/10/01 19:19:59;;;;;;;;;;;20.90;49.90;;;20.28;49.99;101879.34;12264300;19;19911;-84
2023/10/01 19:24:00;;;;;;;;;;;20.90;50.00;;;20.25;49.93;101882.25;12266690;19;19930;-84
2023/10/01 19:28:07;;;;;;;;;;;20.90;50.10;;;20.22;50.15;101882.44;12268102;19;19922;-83